Time;durP1;ratioP1;P1;durP2;ratioP2;P2;SDS_P1;SDS_P2;PMS_P1;PMS_P2;Temp;Humidity;BMP_temperature;BMP_pressure;BME280_temperature;BME280_humidity;BME280_pressure;Samples;Min_cycle;Max_cycle;Signal;HPM_P1;HPM_P2
2022/08/04 00:02:06;;;;;;;6.70;5.05;;;;;;;23.17;66.61;100298.50;5076241;28;20124;-77
2022/08/04 00:04:42;;;;;;;6.25;4.68;;;;;;;23.25;65.49;100296.56;5075744;28;20458;-78
2022/08/04 00:07:16;;;;;;;8.27;5.35;;;;;;;23.18;67.17;100298.31;5075014;28;20051;-77
2022/08/04 00:09:50;;;;;;;6.80;4.50;;;;;;;23.20;66.80;100296.25;5075589;28;20535;-73
2022/08/04 00:12:21;;;;;;;8.15;4.75;;;;;;;23.24;65.30;100296.75;5076044;28;20457;-73
2022/08/04 00:15:01;;;;;;;7.85;4.93;;;;;;;23.15;67.75;100293.19;5075977;28;20127;-73
2022/08/04 00:17:32;;;;;;;6.55;4.65;;;;;;;23.12;67.54;100288.09;5075603;28;20123;-74
2022/08/04 00:20:05;;;;;;;8.70;5.00;;;;;;;23.14;69.21;100289.63;5075885;28;20048;-74
2022/08/04 00:22:38;;;;;;;10.80;5.45;;;;;;;23.04;69.31;100290.84;5075743;28;20040;-77
2022/08/04 00:25:07;;;;;;;6.65;4.68;;;;;;;22.99;70.88;100298.69;5075557;28;20040;-76
2022/08/04 00:27:35;;;;;;;6.10;4.15;;;;;;;22.99;68.66;100291.38;5075223;28;20052;-74
2022/08/04 00:30:07;;;;;;;7.03;4.55;;;;;;;23.02;68.32;100292.88;5075372;28;20051;-77
2022/08/04 00:32:36;;;;;;;6.45;4.63;;;;;;;22.87;68.74;100294.59;5075266;28;20041;-77
2022/08/04 00:35:06;;;;;;;6.72;4.82;;;;;;;22.89;68.53;100298.84;5075528;28;20464;-77
2022/08/04 00:37:37;;;;;;;10.32;5.13;;;;;;;22.83;67.61;100294.91;5074976;28;20075;-76
2022/08/04 00:40:19;;;;;;;8.77;4.95;;;;;;;22.77;68.52;100295.56;5075572;28;20452;-75
2022/08/04 00:42:53;;;;;;;8.35;4.45;;;;;;;22.90;66.45;100300.53;5074177;28;20496;-75
2022/08/04 00:45:53;;;;;;;5.60;4.35;;;;;;;22.72;68.36;100297.97;5075510;28;20051;-76
2022/08/04 00:49:13;;;;;;;9.35;4.75;;;;;;;22.81;65.89;100307.81;5074933;28;20055;-75
2022/08/04 00:51:49;;;;;;;6.40;4.75;;;;;;;22.76;65.83;100307.47;5075106;28;20062;-76
2022/08/04 00:54:49;;;;;;;6.55;4.13;;;;;;;23.03;63.67;100310.91;5073615;28;20053;-79
2022/08/04 00:57:31;;;;;;;5.32;3.78;;;;;;;22.81;66.10;100304.25;5075110;28;20050;-79
2022/08/04 01:00:08;;;;;;;6.35;4.32;;;;;;;22.64;67.36;100306.09;5075106;28;20071;-76
2022/08/04 01:02:54;;;;;;;7.15;4.50;;;;;;;22.80;66.35;100314.28;5074756;28;20113;-77
2022/08/04 01:05:34;;;;;;;5.43;4.22;;;;;;;22.76;66.16;100314.78;5075113;28;20048;-75
2022/08/04 01:08:29;;;;;;;5.90;4.40;;;;;;;22.72;66.87;100311.56;5079864;28;20124;-75
2022/08/04 01:11:04;;;;;;;5.50;4.13;;;;;;;22.61;67.52;100311.88;5076387;28;20296;-74
2022/08/04 01:13:47;;;;;;;6.72;4.28;;;;;;;22.57;68.05;100310.50;5074587;28;20055;-74
2022/08/04 01:16:17;;;;;;;7.15;4.05;;;;;;;22.44;65.85;100311.00;5074654;28;20036;-76
2022/08/04 01:18:56;;;;;;;5.93;4.05;;;;;;;22.37;66.39;100309.97;5073288;28;20143;-76
2022/08/04 01:22:06;;;;;;;5.97;3.97;;;;;;;22.23;68.54;100311.47;5074625;28;20051;-76
2022/08/04 01:24:55;;;;;;;6.32;4.50;;;;;;;22.21;67.84;100308.09;4992832;28;20046;-77
2022/08/04 01:27:40;;;;;;;6.53;4.07;;;;;;;22.49;65.13;100307.81;5067755;28;20052;-77
2022/08/04 01:30:10;;;;;;;5.57;3.83;;;;;;;22.22;67.23;100309.78;5074268;28;20076;-77
2022/08/04 01:32:41;;;;;;;5.63;4.30;;;;;;;22.15;67.42;100307.91;5074098;28;20051;-77
2022/08/04 01:35:16;;;;;;;6.10;4.07;;;;;;;22.18;66.68;100311.13;5074172;28;20127;-77
2022/08/04 01:38:14;;;;;;;6.10;4.07;;;;;;;22.13;67.75;100305.34;5074238;28;20088;-78
2022/08/04 01:40:52;;;;;;;7.18;3.90;;;;;;;22.11;67.83;100310.09;5074040;28;20133;-78
2022/08/04 01:43:21;;;;;;;6.73;3.80;;;;;;;22.06;67.65;100306.97;5073964;28;20396;-78
2022/08/04 01:45:55;;;;;;;7.35;4.00;;;;;;;22.07;68.86;100307.88;5073584;28;20285;-78
2022/08/04 01:48:25;;;;;;;5.45;3.60;;;;;;;22.22;66.77;100307.06;5074229;28;20032;-78
2022/08/04 01:50:58;;;;;;;5.75;3.65;;;;;;;22.19;66.62;100306.53;5073744;28;20079;-75
2022/08/04 01:53:31;;;;;;;6.68;4.05;;;;;;;22.14;66.48;100304.31;5074107;28;20413;-76
2022/08/04 01:56:02;;;;;;;8.25;4.28;;;;;;;22.28;66.89;100310.97;5073560;28;20080;-75
2022/08/04 01:58:32;;;;;;;5.72;3.95;;;;;;;22.21;66.51;100310.81;5073806;28;20381;-75
2022/08/04 02:01:04;;;;;;;8.93;4.13;;;;;;;22.17;67.43;100309.41;5073892;28;20051;-76
2022/08/04 02:03:37;;;;;;;7.38;4.38;;;;;;;22.15;66.70;100308.75;5073521;28;20056;-76
2022/08/04 02:06:32;;;;;;;6.97;4.00;;;;;;;22.04;67.99;100311.72;5073860;28;20040;-74
2022/08/04 02:09:21;;;;;;;6.60;3.97;;;;;;;21.98;67.60;100305.09;5073772;28;20037;-75
2022/08/04 02:12:07;;;;;;;7.53;4.10;;;;;;;21.89;67.31;100305.22;5073182;28;20580;-76
2022/08/04 02:14:50;;;;;;;6.25;3.78;;;;;;;21.90;67.90;100305.03;5073190;28;20040;-74
2022/08/04 02:17:28;;;;;;;4.95;3.72;;;;;;;21.98;66.56;100301.53;5073764;28;20132;-74
2022/08/04 02:20:19;;;;;;;7.38;3.80;;;;;;;22.09;65.62;100295.81;5073529;28;20050;-74
2022/08/04 02:22:58;;;;;;;5.72;3.92;;;;;;;22.12;64.96;100292.78;5073445;28;20037;-74
2022/08/04 02:25:28;;;;;;;7.07;3.88;;;;;;;22.00;66.49;100297.66;5073598;28;20044;-77
2022/08/04 02:28:08;;;;;;;7.00;3.60;;;;;;;22.21;64.28;100299.94;5073097;28;20063;-79
2022/08/04 02:30:43;;;;;;;5.88;3.45;;;;;;;22.23;63.54;100297.91;5073277;28;20041;-76
2022/08/04 02:33:17;;;;;;;6.80;3.72;;;;;;;22.04;65.30;100303.59;5073211;28;20067;-76
2022/08/04 02:35:51;;;;;;;7.53;4.07;;;;;;;21.93;66.62;100295.75;5073216;28;20059;-78
2022/08/04 02:38:27;;;;;;;5.45;4.07;;;;;;;21.91;66.64;100298.63;5073085;28;20052;-74
2022/08/04 02:40:59;;;;;;;7.10;4.00;;;;;;;21.81;67.75;100307.91;5073088;28;20075;-74
2022/08/04 02:43:30;;;;;;;6.15;4.07;;;;;;;21.77;66.61;100306.53;5073103;28;20062;-73
2022/08/04 02:46:20;;;;;;;7.22;3.95;;;;;;;21.80;66.02;100308.91;5073087;28;20041;-74
2022/08/04 02:48:51;;;;;;;6.88;4.22;;;;;;;21.76;67.11;100302.13;5073069;28;20119;-75
2022/08/04 02:51:23;;;;;;;5.15;3.53;;;;;;;21.76;67.26;100302.13;5073015;28;20456;-74
2022/08/04 02:53:54;;;;;;;7.18;3.90;;;;;;;21.79;65.32;100302.63;5072865;28;20439;-73
2022/08/04 02:56:24;;;;;;;8.63;4.43;;;;;;;21.92;66.10;100302.19;5073216;28;20044;-76
2022/08/04 02:58:59;;;;;;;7.22;4.07;;;;;;;21.85;65.61;100303.84;5072717;28;20044;-75
2022/08/04 03:01:29;;;;;;;6.60;3.80;;;;;;;21.74;66.68;100296.84;5073247;28;20123;-76
2022/08/04 03:04:19;;;;;;;5.82;4.20;;;;;;;21.65;66.78;100293.25;5072770;28;20512;-75
2022/08/04 03:07:26;;;;;;;6.05;3.95;;;;;;;21.65;67.00;100301.41;5074070;28;20045;-75
2022/08/04 03:10:25;;;;;;;7.88;3.95;;;;;;;21.76;66.14;100304.84;5077033;28;20068;-75
2022/08/04 03:13:36;;;;;;;6.93;4.00;;;;;;;21.71;65.86;100302.59;5062947;28;20143;-75
2022/08/04 03:16:30;;;;;;;6.18;3.70;;;;;;;21.63;67.41;100300.72;5077032;28;20093;-75
2022/08/04 03:19:51;;;;;;;6.18;3.92;;;;;;;21.56;68.24;100302.38;5076971;28;20048;-74
2022/08/04 03:22:50;;;;;;;5.35;3.90;;;;;;;21.54;67.63;100307.13;5076645;28;20119;-74
2022/08/04 03:25:52;;;;;;;8.52;4.05;;;;;;;21.71;66.90;100308.03;5076376;28;20085;-75
2022/08/04 03:28:52;;;;;;;5.78;3.60;;;;;;;21.77;66.59;100306.53;5076627;28;20445;-74
2022/08/04 03:31:53;;;;;;;5.72;4.05;;;;;;;21.83;65.92;100308.59;5076727;28;20064;-76
2022/08/04 03:34:45;;;;;;;7.80;4.00;;;;;;;21.71;66.81;100308.03;5075725;28;20051;-74
2022/08/04 03:37:43;;;;;;;7.32;4.10;;;;;;;21.58;68.20;100303.06;5076549;28;20076;-74
2022/08/04 03:40:41;;;;;;;6.72;4.20;;;;;;;21.57;68.60;100306.78;5060575;28;20057;-74
2022/08/04 03:43:47;;;;;;;8.38;3.75;;;;;;;21.46;69.60;100315.22;5076348;28;20477;-74
2022/08/04 03:47:06;;;;;;;6.70;4.53;;;;;;;21.45;68.95;100318.94;5076349;28;20047;-74
2022/08/04 03:49:58;;;;;;;8.43;3.97;;;;;;;21.84;66.17;100310.31;5076379;28;20102;-76
2022/08/04 03:56:16;;;;;;;7.03;3.90;;;;;;;21.88;65.46;100311.66;5076453;28;20036;-78
2022/08/04 03:59:00;;;;;;;6.47;3.88;;;;;;;21.95;66.48;100315.44;5076099;28;20098;-78
2022/08/04 04:01:43;;;;;;;5.55;3.83;;;;;;;22.04;64.73;100316.31;5076318;28;20045;-78
2022/08/04 04:04:47;;;;;;;6.70;4.30;;;;;;;21.98;65.76;100312.38;5076091;28;20048;-77
2022/08/04 04:08:03;;;;;;;5.60;3.90;;;;;;;22.16;64.47;100318.59;5075880;28;20486;-77
2022/08/04 04:10:58;;;;;;;6.78;3.75;;;;;;;22.71;61.52;100323.44;5065799;28;20056;-75
2022/08/04 04:13:56;;;;;;;8.27;4.07;;;;;;;23.21;59.09;100314.28;5075696;28;20048;-75
2022/08/04 04:16:41;;;;;;;6.00;4.18;;;;;;;23.80;57.09;100320.28;5075681;28;20442;-75
2022/08/04 04:19:48;;;;;;;7.85;4.00;;;;;;;24.30;54.86;100324.47;5075545;28;20044;-75
2022/08/04 04:22:29;;;;;;;5.93;3.83;;;;;;;24.64;53.86;100323.28;5068650;28;20056;-75
2022/08/04 04:25:19;;;;;;;7.45;3.83;;;;;;;24.73;53.21;100323.03;5075338;28;20062;-75
2022/08/04 04:28:04;;;;;;;7.90;4.20;;;;;;;24.85;53.24;100326.16;5075344;28;20444;-75
2022/08/04 04:31:02;;;;;;;9.60;4.28;;;;;;;24.54;54.55;100318.91;5075482;28;20047;-75
2022/08/04 04:33:40;;;;;;;8.48;4.50;;;;;;;24.63;54.04;100324.31;5075617;28;20056;-75
2022/08/04 04:36:13;;;;;;;6.47;4.32;;;;;;;24.28;55.46;100318.34;5075388;28;20049;-75
2022/08/04 04:39:03;;;;;;;8.70;4.35;;;;;;;24.24;56.57;100322.47;5075253;28;20057;-75
2022/08/04 04:42:05;;;;;;;6.38;4.15;;;;;;;24.66;54.98;100327.50;5075211;28;20052;-77
2022/08/04 04:45:02;;;;;;;7.05;3.83;;;;;;;25.09;54.14;100334.19;5067269;28;20048;-77
2022/08/04 04:47:41;;;;;;;9.93;4.00;;;;;;;24.89;54.42;100337.56;5075149;28;20041;-78
2022/08/04 04:50:40;;;;;;;8.52;4.25;;;;;;;25.38;53.06;100330.66;5075190;28;20036;-76
2022/08/04 04:53:17;;;;;;;8.52;4.28;;;;;;;25.62;52.21;100336.91;5075049;28;20462;-77
2022/08/04 04:55:53;;;;;;;6.00;3.47;;;;;;;25.66;51.53;100332.75;5074760;28;20453;-73
2022/08/04 04:58:22;;;;;;;6.38;3.80;;;;;;;26.32;49.96;100332.78;5075349;28;20076;-74
2022/08/04 05:01:13;;;;;;;6.38;3.72;;;;;;;26.96;48.40;100341.09;5074811;28;20040;-74
2022/08/04 05:03:57;;;;;;;6.80;3.40;;;;;;;27.47;46.22;100335.41;5074800;28;20140;-78
2022/08/04 05:06:45;;;;;;;6.78;3.75;;;;;;;26.70;48.69;100334.31;5075089;28;20101;-71
2022/08/04 05:09:46;;;;;;;5.25;3.70;;;;;;;26.05;49.73;100337.94;5074859;28;20037;-70
2022/08/04 05:12:42;;;;;;;7.82;3.47;;;;;;;25.77;50.01;100342.38;5073420;28;20114;-71
2022/08/04 05:15:34;;;;;;;6.10;3.50;;;;;;;25.54;51.70;100345.16;5074777;28;20051;-70
2022/08/04 05:18:06;;;;;;;5.22;3.63;;;;;;;25.60;51.78;100347.16;5074184;28;20053;-72
2022/08/04 05:20:38;;;;;;;5.15;3.55;;;;;;;26.04;50.59;100343.59;5074519;28;20047;-74
2022/08/04 05:23:13;;;;;;;6.00;3.90;;;;;;;27.05;47.35;100342.69;5073871;28;20051;-72
2022/08/04 05:25:44;;;;;;;7.45;3.85;;;;;;;26.74;48.24;100352.03;5074506;28;20037;-73
2022/08/04 05:28:32;;;;;;;8.57;3.80;;;;;;;27.15;47.40;100350.56;5074231;28;20036;-76
2022/08/04 05:31:05;;;;;;;8.55;3.65;;;;;;;28.28;44.29;100346.63;5073591;28;20120;-74
2022/08/04 05:33:40;;;;;;;5.18;3.17;;;;;;;28.91;41.32;100350.88;5074331;28;20044;-77
2022/08/04 05:36:15;;;;;;;8.52;3.55;;;;;;;29.26;40.16;100364.41;5073932;28;20040;-75
2022/08/04 05:39:02;;;;;;;6.82;3.25;;;;;;;29.66;39.00;100356.19;5073308;28;20494;-74
2022/08/04 05:41:33;;;;;;;6.70;3.20;;;;;;;29.47;39.46;100353.19;5074083;28;20067;-74
2022/08/04 05:44:18;;;;;;;5.30;3.15;;;;;;;29.67;38.96;100360.59;5074480;28;20052;-74
2022/08/04 05:46:51;;;;;;;9.00;2.92;;;;;;;30.48;36.54;100358.22;5073874;28;20041;-75
2022/08/04 05:49:23;;;;;;;4.47;2.90;;;;;;;30.53;36.60;100357.59;5072484;28;20482;-73
2022/08/04 05:51:53;;;;;;;6.18;3.13;;;;;;;29.46;38.62;100373.50;5073758;28;20496;-73
2022/08/04 05:54:22;;;;;;;4.95;2.75;;;;;;;30.58;36.17;100361.34;5073697;28;20127;-73
2022/08/04 05:56:51;;;;;;;4.88;3.10;;;;;;;30.67;35.62;100357.31;5073495;28;20040;-74
2022/08/04 05:59:24;;;;;;;4.85;2.75;;;;;;;29.85;36.38;100371.78;5073670;28;20044;-76
2022/08/04 06:01:56;;;;;;;5.53;2.80;;;;;;;30.76;35.64;100367.00;5072173;28;20052;-75
2022/08/04 06:04:32;;;;;;;6.90;3.20;;;;;;;31.38;34.86;100369.13;5073898;28;20036;-73
2022/08/04 06:07:01;;;;;;;6.38;2.80;;;;;;;32.12;33.27;100362.63;5074274;28;20094;-72
2022/08/04 06:09:30;;;;;;;6.57;2.97;;;;;;;31.60;34.67;100364.88;5073761;28;20067;-71
2022/08/04 06:12:00;;;;;;;7.60;2.90;;;;;;;32.10;33.58;100367.53;5073222;28;20106;-69
2022/08/04 06:14:38;;;;;;;7.47;3.08;;;;;;;32.41;33.65;100370.16;5073581;28;20049;-69
2022/08/04 06:17:08;;;;;;;7.25;3.03;;;;;;;32.68;31.73;100365.09;5073476;28;20048;-69
2022/08/04 06:19:59;;;;;;;6.57;2.92;;;;;;;32.36;33.27;100366.41;5073183;28;20068;-70
2022/08/04 06:22:53;;;;;;;6.55;3.00;;;;;;;32.72;32.01;100359.97;5073349;28;20555;-73
2022/08/04 06:25:26;;;;;;;5.18;2.67;;;;;;;32.62;31.80;100366.06;5072145;28;20123;-72
2022/08/04 06:27:55;;;;;;;4.10;2.55;;;;;;;32.17;30.87;100368.31;5073024;28;20516;-72
2022/08/04 06:30:27;;;;;;;3.47;2.10;;;;;;;33.04;29.92;100371.63;5073336;28;20037;-71
2022/08/04 06:32:59;;;;;;;4.75;2.05;;;;;;;33.18;28.86;100369.47;5072943;28;20036;-71
2022/08/04 06:35:34;;;;;;;4.35;1.98;;;;;;;33.18;28.76;100369.47;5071997;28;20383;-71
2022/08/04 06:38:03;;;;;;;7.25;2.30;;;;;;;33.20;29.02;100361.78;5072912;28;20448;-70
2022/08/04 06:40:32;;;;;;;4.93;2.20;;;;;;;33.40;29.00;100367.88;5072804;28;20058;-70
2022/08/04 06:43:04;;;;;;;3.42;2.00;;;;;;;33.21;28.83;100363.50;5072709;28;20067;-69
2022/08/04 06:45:37;;;;;;;4.63;2.08;;;;;;;33.42;28.80;100359.34;5072915;28;20235;-68
2022/08/04 06:48:07;;;;;;;4.38;2.05;;;;;;;33.72;28.38;100360.06;5071586;28;20052;-72
2022/08/04 06:50:36;;;;;;;4.53;1.88;;;;;;;34.50;27.27;100355.13;5073011;28;20074;-72
2022/08/04 06:53:25;;;;;;;3.58;2.22;;;;;;;34.49;26.52;100358.97;5071488;28;20131;-71
2022/08/04 06:55:54;;;;;;;5.50;2.05;;;;;;;34.49;26.35;100353.44;5072473;28;20485;-72
2022/08/04 06:58:24;;;;;;;4.13;2.30;;;;;;;34.40;26.67;100356.59;5073131;28;20370;-71
2022/08/04 07:01:00;;;;;;;3.83;1.83;;;;;;;34.05;26.72;100355.81;5072921;28;20056;-71
2022/08/04 07:03:29;;;;;;;5.50;2.13;;;;;;;34.12;26.84;100360.13;5071961;28;20465;-71
2022/08/04 07:05:58;;;;;;;5.18;2.08;;;;;;;33.01;28.23;100359.13;5072678;28;20489;-71
2022/08/04 07:08:34;;;;;;;3.03;2.10;;;;;;;31.94;29.07;100354.34;5072774;28;20068;-71
2022/08/04 07:11:04;;;;;;;6.32;2.03;;;;;;;31.52;29.47;100356.88;5071313;28;20049;-71
2022/08/04 07:13:32;;;;;;;3.88;2.28;;;;;;;31.10;29.79;100351.09;5071056;28;20055;-71
2022/08/04 07:16:02;;;;;;;4.72;2.30;;;;;;;30.85;30.74;100355.72;5072510;28;20045;-71
2022/08/04 07:18:31;;;;;;;3.97;2.15;;;;;;;31.00;31.04;100367.28;5072846;28;20397;-71
2022/08/04 07:21:00;;;;;;;4.72;2.05;;;;;;;30.92;30.29;100364.78;5072357;28;20078;-71
2022/08/04 07:23:28;;;;;;;3.63;2.00;;;;;;;30.75;30.75;100357.03;5072911;28;20048;-71
2022/08/04 07:25:58;;;;;;;4.10;2.20;;;;;;;30.84;30.46;100351.28;5072619;28;20482;-71
2022/08/04 07:28:40;;;;;;;4.18;2.10;;;;;;;30.69;30.35;100357.94;5072816;28;20433;-70
2022/08/04 07:31:15;;;;;;;6.63;2.10;;;;;;;30.00;32.06;100357.75;5071296;28;20453;-73
2022/08/04 07:34:03;;;;;;;3.42;2.17;;;;;;;29.88;31.66;100361.19;5072574;28;20044;-71
2022/08/04 07:36:51;;;;;;;3.70;2.03;;;;;;;30.07;31.75;100353.97;5072674;28;20048;-71
2022/08/04 07:39:25;;;;;;;4.32;1.90;;;;;;;30.01;31.95;100354.78;5072519;28;20492;-71
2022/08/04 07:41:58;;;;;;;3.47;2.10;;;;;;;30.07;32.09;100351.22;5071028;28;20428;-71
2022/08/04 07:44:31;;;;;;;3.55;2.13;;;;;;;29.98;32.24;100352.47;5072842;28;20048;-71
2022/08/04 07:47:02;;;;;;;4.25;2.15;;;;;;;29.57;32.43;100342.66;5072406;28;20379;-71
2022/08/04 07:49:32;;;;;;;3.53;1.83;;;;;;;29.47;32.97;100350.47;5072589;28;20413;-71
2022/08/04 07:52:21;;;;;;;6.32;2.45;;;;;;;29.24;33.46;100339.03;5073043;28;20037;-71
2022/08/04 07:54:50;;;;;;;4.72;2.50;;;;;;;29.51;33.33;100340.75;5074849;28;20068;-71
2022/08/04 07:57:19;;;;;;;4.85;2.22;;;;;;;29.61;33.04;100338.41;5074596;28;20474;-71
2022/08/04 08:00:14;;;;;;;4.18;2.50;;;;;;;29.77;32.80;100344.50;5074413;28;20055;-71
2022/08/04 08:02:48;;;;;;;4.30;2.10;;;;;;;29.82;32.45;100333.69;5074502;28;20470;-71
2022/08/04 08:05:19;;;;;;;4.22;2.25;;;;;;;29.87;32.37;100342.16;5074256;28;20517;-71
2022/08/04 08:07:47;;;;;;;4.20;2.22;;;;;;;29.78;33.22;100340.69;5076218;28;20470;-71
2022/08/04 08:10:22;;;;;;;5.95;2.45;;;;;;;29.87;32.18;100339.41;5074568;28;20422;-71
2022/08/04 08:12:51;;;;;;;4.32;2.20;;;;;;;29.87;32.73;100344.91;5075770;28;20390;-71
2022/08/04 08:15:20;;;;;;;3.28;2.30;;;;;;;29.81;33.19;100346.59;5073973;28;20049;-71
2022/08/04 08:17:50;;;;;;;3.95;2.40;;;;;;;29.82;32.39;100344.69;5075882;28;20090;-71
2022/08/04 08:20:30;;;;;;;4.35;2.13;;;;;;;29.79;32.53;100347.88;5075822;28;20044;-71
2022/08/04 08:22:59;;;;;;;4.70;2.20;;;;;;;29.71;33.28;100342.63;5074205;28;20493;-71
2022/08/04 08:25:29;;;;;;;7.10;2.40;;;;;;;29.43;33.12;100343.69;5075427;28;20067;-71
2022/08/04 08:27:57;;;;;;;5.72;2.60;;;;;;;29.48;33.33;100341.19;5075746;28;20048;-72
2022/08/04 08:30:26;;;;;;;5.22;2.30;;;;;;;29.45;33.73;100341.59;5075440;28;20444;-71
2022/08/04 08:33:06;;;;;;;3.75;2.30;;;;;;;29.32;33.23;100347.91;5073934;28;20044;-71
2022/08/04 08:35:46;;;;;;;6.55;2.40;;;;;;;29.42;33.59;100342.00;5075693;28;20044;-71
2022/08/04 08:38:34;;;;;;;8.23;2.55;;;;;;;29.67;32.55;100339.47;5073786;28;20052;-71
2022/08/04 08:41:23;;;;;;;8.07;3.15;;;;;;;29.86;32.52;100348.72;5075276;28;20544;-71
2022/08/04 08:44:10;;;;;;;4.40;2.20;;;;;;;29.87;32.05;100339.41;5075169;28;20068;-71
2022/08/04 08:47:09;;;;;;;4.88;2.40;;;;;;;29.52;32.99;100336.94;5074281;28;20443;-71
2022/08/04 08:50:01;;;;;;;4.20;2.00;;;;;;;29.73;32.54;100340.53;5075369;28;20075;-71
2022/08/04 08:52:44;;;;;;;;;;;;;;;29.91;31.96;100335.16;5075522;28;20051;-72
2022/08/04 08:55:38;;;;;;;3.30;2.00;;;;;;;29.95;31.63;100341.94;5074021;28;19934;-71
2022/08/04 08:58:24;;;;;;;4.90;2.33;;;;;;;30.03;31.65;100338.09;5073675;28;20044;-72
2022/08/04 09:00:59;;;;;;;3.92;2.60;;;;;;;30.18;31.14;100331.28;5073601;28;20074;-72
2022/08/04 09:04:16;;;;;;;4.75;2.30;;;;;;;30.06;31.19;100327.50;5074944;28;20119;-71
2022/08/04 09:07:02;;;;;;;3.30;2.30;;;;;;;29.70;31.50;100328.03;5074829;28;20121;-71
2022/08/04 09:09:49;;;;;;;3.20;2.30;;;;;;;29.71;31.55;100334.38;5074914;28;20067;-71
2022/08/04 09:12:27;;;;;;;4.95;2.80;;;;;;;29.69;31.65;100336.50;5073118;28;20044;-71
2022/08/04 09:15:05;;;;;;;5.78;2.15;;;;;;;29.63;32.13;100338.22;5073410;28;20045;-71
2022/08/04 09:17:41;;;;;;;4.28;2.50;;;;;;;29.76;32.02;100337.34;5074553;28;20094;-71
2022/08/04 09:20:18;;;;;;;4.30;2.30;;;;;;;29.54;31.63;100339.50;5074443;28;20040;-71
2022/08/04 09:22:51;;;;;;;3.53;2.40;;;;;;;29.70;32.31;100327.19;5073611;28;20496;-71
2022/08/04 09:25:24;;;;;;;4.03;2.20;;;;;;;29.66;32.00;100332.28;5074242;28;20054;-71
2022/08/04 09:27:55;;;;;;;5.03;2.60;;;;;;;29.80;31.51;100336.66;5074376;28;20094;-71
2022/08/04 09:30:31;;;;;;;5.07;2.50;;;;;;;29.75;32.31;100338.41;5074094;28;20102;-71
2022/08/04 09:33:10;;;;;;;4.43;2.60;;;;;;;29.93;31.84;100322.91;5073222;28;20079;-71
2022/08/04 09:35:52;;;;;;;4.63;2.60;;;;;;;29.98;32.23;100329.66;5073144;28;20048;-71
2022/08/04 09:38:34;;;;;;;3.70;2.33;;;;;;;30.11;32.63;100313.97;5074125;28;20118;-71
2022/08/04 09:41:14;;;;;;;3.13;2.20;;;;;;;30.29;31.35;100318.75;5072900;28;20440;-72
2022/08/04 09:43:57;;;;;;;4.05;2.20;;;;;;;30.41;31.81;100319.75;5072807;28;20118;-71
2022/08/04 09:46:53;;;;;;;4.32;2.20;;;;;;;30.65;31.30;100320.06;5073905;28;20040;-72
2022/08/04 09:49:27;;;;;;;4.53;2.33;;;;;;;30.67;31.28;100313.25;5073689;28;20052;-71
2022/08/04 09:52:07;;;;;;;3.92;2.50;;;;;;;30.88;30.76;100308.44;5074077;28;20055;-71
2022/08/04 09:54:46;;;;;;;6.55;2.50;;;;;;;30.93;30.59;100306.72;5073838;28;20049;-71
2022/08/04 09:57:30;;;;;;;6.45;2.72;;;;;;;31.08;30.80;100309.16;5073439;28;20099;-71
2022/08/04 10:00:04;;;;;;;4.40;2.33;;;;;;;31.10;30.62;100301.50;5073661;28;20079;-71
2022/08/04 10:02:38;;;;;;;4.05;2.30;;;;;;;30.95;30.43;100300.97;5072792;28;20444;-71
2022/08/04 10:05:16;;;;;;;5.25;2.22;;;;;;;31.06;31.02;100305.75;5072237;28;20421;-71
2022/08/04 10:07:57;;;;;;;3.75;2.38;;;;;;;31.00;30.91;100302.00;5073596;28;20045;-71
2022/08/04 10:10:55;;;;;;;4.00;2.40;;;;;;;30.99;31.00;100297.56;5073799;28;20130;-71
2022/08/04 10:13:39;;;;;;;4.15;2.35;;;;;;;31.07;31.13;100299.19;5073502;28;20122;-71
2022/08/04 10:16:34;;;;;;;3.10;2.17;;;;;;;31.06;30.75;100294.75;5072950;28;20048;-72
2022/08/04 10:19:26;;;;;;;4.80;2.30;;;;;;;31.21;30.64;100292.53;5072387;28;20083;-71
2022/08/04 10:22:06;;;;;;;3.95;2.50;;;;;;;31.18;30.35;100292.97;5073432;28;20128;-71
2022/08/04 10:25:03;;;;;;;4.80;2.50;;;;;;;31.04;30.54;100291.38;5073551;28;20049;-71
2022/08/04 10:27:40;;;;;;;5.70;2.60;;;;;;;30.88;30.56;100292.75;5073358;28;20119;-71
2022/08/04 10:30:13;;;;;;;4.28;2.40;;;;;;;30.81;30.96;100296.66;5073070;28;20041;-72
2022/08/04 10:32:45;;;;;;;4.93;2.30;;;;;;;30.94;30.74;100291.03;5071868;28;20052;-71
2022/08/04 10:35:15;;;;;;;3.75;2.45;;;;;;;31.28;30.27;100285.06;5071562;28;20501;-71
2022/08/04 10:37:53;;;;;;;4.22;2.38;;;;;;;31.49;29.50;100282.94;5073345;28;20440;-71
2022/08/04 10:40:39;;;;;;;4.90;2.22;;;;;;;31.48;29.52;100281.25;5073448;28;20040;-71
2022/08/04 10:43:18;;;;;;;4.35;2.50;;;;;;;31.41;29.35;100280.47;5073103;28;20044;-72
2022/08/04 10:45:56;;;;;;;3.85;2.60;;;;;;;31.23;29.84;100284.88;5073273;28;20059;-71
2022/08/04 10:48:36;;;;;;;3.88;2.28;;;;;;;31.12;29.93;100271.81;5072977;28;20071;-71
2022/08/04 10:51:15;;;;;;;5.90;2.80;;;;;;;30.68;31.15;100265.38;5071626;28;20131;-72
2022/08/04 10:53:45;;;;;;;4.55;2.72;;;;;;;30.81;31.83;100263.63;5071804;28;20285;-70
2022/08/04 10:56:19;;;;;;;4.20;2.40;;;;;;;31.02;30.73;100254.97;5071372;28;20130;-72
2022/08/04 10:58:54;;;;;;;5.40;2.63;;;;;;;31.07;30.59;100255.09;5072838;28;20474;-71
2022/08/04 11:01:26;;;;;;;4.38;2.63;;;;;;;31.08;30.74;100254.06;5071461;28;20131;-71
2022/08/04 11:04:21;;;;;;;3.83;2.53;;;;;;;31.04;30.46;100250.06;5072793;28;20060;-71
2022/08/04 11:06:56;;;;;;;3.85;2.53;;;;;;;31.05;30.57;100255.34;5071697;28;20200;-72
2022/08/04 11:09:25;;;;;;;4.25;2.70;;;;;;;31.13;30.73;100251.47;5072411;28;20048;-71
2022/08/04 11:11:56;;;;;;;4.47;2.38;;;;;;;31.26;30.02;100254.09;5071655;28;20051;-71
2022/08/04 11:14:37;;;;;;;3.95;2.60;;;;;;;31.44;30.10;100249.69;5072611;28;20060;-71
2022/08/04 11:17:11;;;;;;;6.15;3.08;;;;;;;31.19;30.38;100250.56;5071777;28;20131;-71
2022/08/04 11:19:48;;;;;;;7.13;2.75;;;;;;;31.19;30.17;100239.53;5071538;28;20477;-71
2022/08/04 11:22:26;;;;;;;4.40;2.67;;;;;;;31.26;30.07;100245.00;5072576;28;20448;-71
2022/08/04 11:25:05;;;;;;;6.00;2.75;;;;;;;31.22;30.85;100250.13;5072927;28;20058;-71
2022/08/04 11:27:43;;;;;;;5.70;3.05;;;;;;;31.55;30.08;100238.72;5072708;28;20052;-72
2022/08/04 11:30:16;;;;;;;4.88;2.90;;;;;;;31.72;30.04;100243.63;5075180;28;20102;-72
2022/08/04 11:32:53;;;;;;;5.30;2.90;;;;;;;31.82;29.82;100239.28;5076677;28;20044;-71
2022/08/04 11:35:29;;;;;;;4.50;2.78;;;;;;;31.93;29.12;100237.66;5074710;28;20052;-71
2022/08/04 11:38:04;;;;;;;4.70;2.70;;;;;;;31.90;29.20;100236.22;5075097;28;20071;-71
2022/08/04 11:40:37;;;;;;;7.90;3.17;;;;;;;32.11;28.83;100231.28;5076529;28;20036;-71
2022/08/04 11:43:12;;;;;;;4.82;2.90;;;;;;;32.21;29.11;100234.31;5076713;28;20044;-71
2022/08/04 11:45:59;;;;;;;5.15;3.10;;;;;;;32.27;28.29;100230.63;5074921;28;20126;-72
2022/08/04 11:48:34;;;;;;;5.00;3.00;;;;;;;32.09;28.12;100238.94;5075944;28;20124;-72
2022/08/04 11:51:04;;;;;;;4.72;3.25;;;;;;;32.24;27.83;100230.25;5076307;28;20037;-72
2022/08/04 11:53:37;;;;;;;3.93;3.13;;;;;;;32.29;28.13;100228.47;5076341;28;20064;-71
2022/08/04 11:56:09;;;;;;;5.53;3.17;;;;;;;32.37;27.42;100224.56;5074937;28;20098;-71
2022/08/04 11:58:40;;;;;;;4.50;2.97;;;;;;;32.13;28.03;100218.09;5075898;28;20045;-71
2022/08/04 12:01:28;;;;;;;5.88;3.20;;;;;;;32.02;28.22;100210.59;5075920;28;20048;-71
2022/08/04 12:04:03;;;;;;;6.88;2.90;;;;;;;31.46;28.60;100212.56;5075015;28;20114;-71
2022/08/04 12:06:39;;;;;;;5.60;3.22;;;;;;;31.62;28.37;100216.59;5075673;28;20052;-73
2022/08/04 12:09:18;;;;;;;3.90;3.08;;;;;;;31.46;28.64;100207.06;5074861;28;20056;-71
2022/08/04 12:11:58;;;;;;;8.25;3.03;;;;;;;31.44;29.18;100209.19;5074772;28;20049;-71
2022/08/04 12:14:33;;;;;;;4.63;2.88;;;;;;;31.42;29.12;100204.97;5074159;28;20482;-70
2022/08/04 12:17:05;;;;;;;3.80;3.00;;;;;;;31.59;28.38;100206.06;5075788;28;20072;-71
2022/08/04 12:19:39;;;;;;;4.75;3.05;;;;;;;31.86;28.77;100195.56;5074343;28;20135;-71
2022/08/04 12:22:32;;;;;;;4.28;2.90;;;;;;;31.84;28.44;100197.69;5074240;28;20500;-71
2022/08/04 12:25:04;;;;;;;5.18;3.00;;;;;;;31.89;28.12;100190.41;5074366;28;20048;-72
2022/08/04 12:27:35;;;;;;;;;;;;;;;32.12;27.59;100194.31;5074580;28;20135;-71
2022/08/04 12:30:05;;;;;;;6.20;3.38;;;;;;;32.34;26.70;100187.25;5091377;28;20014;-71